createdAt,value
2023-02-18T00:02:12.018Z,3.50
2023-02-18T00:04:39.474Z,3.25
2023-02-18T00:07:06.863Z,2.08
2023-02-18T00:09:34.232Z,3.80
2023-02-18T00:12:02.943Z,3.60
2023-02-18T00:14:30.317Z,3.72
2023-02-18T00:16:57.897Z,3.00
2023-02-18T00:19:25.270Z,3.60
2023-02-18T00:21:52.685Z,4.40
2023-02-18T00:24:20.088Z,3.35
2023-02-18T00:26:47.469Z,3.85
2023-02-18T00:29:16.175Z,3.67
2023-02-18T00:31:43.867Z,3.83
2023-02-18T00:34:11.736Z,3.13
2023-02-18T00:36:39.328Z,5.32
2023-02-18T00:39:07.719Z,4.47
2023-02-18T00:41:35.287Z,2.65
2023-02-18T00:44:02.677Z,4.07
2023-02-18T00:46:31.552Z,2.60
2023-02-18T00:48:58.957Z,2.85
2023-02-18T00:51:26.355Z,2.60
2023-02-18T00:53:53.788Z,4.53
2023-02-18T00:56:21.561Z,4.65
2023-02-18T00:58:48.964Z,4.40
2023-02-18T01:01:16.451Z,3.25
2023-02-18T01:03:45.199Z,3.95
2023-02-18T01:06:12.987Z,2.72
2023-02-18T01:08:40.977Z,3.53
2023-02-18T01:11:08.782Z,4.28
2023-02-18T01:13:36.250Z,4.13
2023-02-18T01:16:03.792Z,3.95
2023-02-18T01:18:31.408Z,4.63
2023-02-18T01:21:00.113Z,3.55
2023-02-18T01:23:27.513Z,4.68
2023-02-18T01:25:56.088Z,5.50
2023-02-18T01:28:25.217Z,6.38
2023-02-18T01:30:52.992Z,4.90
2023-02-18T01:33:20.486Z,5.57
2023-02-18T01:35:47.876Z,7.20
2023-02-18T01:38:16.609Z,4.65
2023-02-18T01:40:48.344Z,5.53
2023-02-18T01:43:15.963Z,5.53
2023-02-18T01:45:58.313Z,5.10
2023-02-18T01:48:27.332Z,4.35
2023-02-18T01:50:57.306Z,5.72
2023-02-18T01:53:27.759Z,6.03
2023-02-18T01:55:55.175Z,3.85
2023-02-18T01:58:22.599Z,5.45
2023-02-18T02:00:50.020Z,6.40
2023-02-18T02:03:17.422Z,4.97
2023-02-18T02:05:44.795Z,6.88
2023-02-18T02:08:12.178Z,8.88
2023-02-18T02:10:48.606Z,6.32
2023-02-18T02:13:17.131Z,7.80
2023-02-18T02:15:46.253Z,7.95
2023-02-18T02:18:21.949Z,6.40
2023-02-18T02:21:13.337Z,7.95
2023-02-18T02:24:01.437Z,7.32
2023-02-18T02:27:06.939Z,7.70
2023-02-18T02:30:10.016Z,8.82
2023-02-18T02:33:08.547Z,7.07
2023-02-18T02:35:37.405Z,7.35
2023-02-18T02:38:06.216Z,7.35
2023-02-18T02:40:36.310Z,7.72
2023-02-18T02:45:39.708Z,5.70
2023-02-18T02:48:10.713Z,8.60
2023-02-18T02:50:41.336Z,8.60
2023-02-18T02:53:12.689Z,7.70
2023-02-18T02:55:40.149Z,9.65
2023-02-18T02:58:07.534Z,6.78
2023-02-18T03:00:41.688Z,8.35
2023-02-18T03:03:21.220Z,7.30
2023-02-18T03:05:56.780Z,6.78
2023-02-18T03:08:30.440Z,7.40
2023-02-18T03:10:59.549Z,7.43
2023-02-18T03:13:35.901Z,6.40
2023-02-18T03:16:10.512Z,7.90
2023-02-18T03:18:39.188Z,5.63
2023-02-18T03:21:10.642Z,6.90
2023-02-18T03:23:39.945Z,6.38
2023-02-18T03:26:07.591Z,8.93
2023-02-18T03:28:35.119Z,6.07
2023-02-18T03:31:04.164Z,7.60
2023-02-18T03:33:33.323Z,7.55
2023-02-18T03:36:01.125Z,6.25
2023-02-18T03:38:30.808Z,6.05
2023-02-18T03:40:58.195Z,8.40
2023-02-18T03:43:25.573Z,9.10
2023-02-18T03:45:53.028Z,6.72
2023-02-18T03:48:20.435Z,7.47
2023-02-18T03:50:47.827Z,6.72
2023-02-18T03:53:15.283Z,6.63
2023-02-18T03:55:43.989Z,7.15
2023-02-18T03:58:11.397Z,7.15
2023-02-18T04:00:38.796Z,6.07
2023-02-18T04:03:06.196Z,7.97
2023-02-18T04:05:33.568Z,7.40
2023-02-18T04:08:00.942Z,5.50
2023-02-18T04:10:28.361Z,7.28
2023-02-18T04:12:57.071Z,8.02
2023-02-18T04:15:24.455Z,7.32
2023-02-18T04:17:51.843Z,6.85
2023-02-18T04:20:19.448Z,6.88
2023-02-18T04:22:46.810Z,5.88
2023-02-18T04:25:14.202Z,7.30
2023-02-18T04:27:41.585Z,8.68
2023-02-18T04:30:10.922Z,7.88
2023-02-18T04:32:38.346Z,5.93
2023-02-18T04:35:06.034Z,6.80
2023-02-18T04:37:33.411Z,5.82
2023-02-18T04:40:00.816Z,6.30
2023-02-18T04:42:28.222Z,6.03
2023-02-18T04:44:55.630Z,5.32
2023-02-18T04:47:24.391Z,5.57
2023-02-18T04:49:51.775Z,5.80
2023-02-18T04:52:19.197Z,6.78
2023-02-18T04:54:46.608Z,5.85
2023-02-18T04:57:14.040Z,7.50
2023-02-18T04:59:41.594Z,6.18
2023-02-18T05:02:08.963Z,5.95
2023-02-18T05:04:37.693Z,6.10
2023-02-18T05:07:05.083Z,5.45
2023-02-18T05:09:32.465Z,5.00
2023-02-18T05:11:59.860Z,4.40
2023-02-18T05:14:27.265Z,5.32
2023-02-18T05:16:54.657Z,5.40
2023-02-18T05:19:22.060Z,6.20
2023-02-18T05:21:50.738Z,5.15
2023-02-18T05:24:18.130Z,4.68
2023-02-18T05:26:45.779Z,5.38
2023-02-18T05:29:13.213Z,5.57
2023-02-18T05:31:40.709Z,4.15
2023-02-18T05:34:08.176Z,5.78
2023-02-18T05:36:35.584Z,4.05
2023-02-18T05:39:04.324Z,5.40
2023-02-18T05:41:31.761Z,4.78
2023-02-18T05:44:16.571Z,4.97
2023-02-18T05:46:44.074Z,5.25
2023-02-18T05:49:11.558Z,3.90
2023-02-18T05:51:39.193Z,4.65
2023-02-18T05:54:07.926Z,5.68
2023-02-18T05:56:35.287Z,4.63
2023-02-18T05:59:02.659Z,5.13
2023-02-18T06:01:30.151Z,6.18
2023-02-18T06:03:57.577Z,4.55
2023-02-18T06:06:24.955Z,4.40
2023-02-18T06:08:52.377Z,5.03
2023-02-18T06:11:21.056Z,4.32
2023-02-18T06:13:48.447Z,4.95
2023-02-18T06:16:15.855Z,5.97
2023-02-18T06:18:43.268Z,4.75
2023-02-18T06:21:10.645Z,4.40
2023-02-18T06:23:38.098Z,4.20
2023-02-18T06:26:05.751Z,4.18
2023-02-18T06:28:34.528Z,4.40
2023-02-18T06:31:02.025Z,6.22
2023-02-18T06:33:29.538Z,3.78
2023-02-18T06:35:59.406Z,5.15
2023-02-18T06:38:26.916Z,4.25
2023-02-18T06:40:54.473Z,4.40
2023-02-18T06:43:22.097Z,3.75
2023-02-18T06:45:50.839Z,3.92
2023-02-18T06:48:18.289Z,4.88
2023-02-18T06:50:45.673Z,3.92
2023-02-18T06:53:13.118Z,4.90
2023-02-18T06:55:40.499Z,3.80
2023-02-18T06:58:07.892Z,3.83
2023-02-18T07:00:35.710Z,3.95
2023-02-18T07:03:04.645Z,3.47
2023-02-18T07:05:32.146Z,3.95
2023-02-18T07:07:59.534Z,3.35
2023-02-18T07:10:26.909Z,3.47
2023-02-18T07:12:54.295Z,3.60
2023-02-18T07:15:24.109Z,4.03
2023-02-18T07:17:51.903Z,3.50
2023-02-18T07:20:20.650Z,3.22
2023-02-18T07:22:48.253Z,2.85
2023-02-18T07:25:15.912Z,2.53
2023-02-18T07:27:43.358Z,2.85
2023-02-18T07:30:11.261Z,3.10
2023-02-18T07:32:38.793Z,2.92
2023-02-18T07:35:06.549Z,2.60
2023-02-18T07:39:54.140Z,2.65
2023-02-18T07:42:21.536Z,2.42
2023-02-18T07:44:49.089Z,2.30
2023-02-18T07:47:17.190Z,2.83
2023-02-18T07:49:44.743Z,1.90
2023-02-18T07:52:12.224Z,2.22
2023-02-18T07:54:39.619Z,2.20
2023-02-18T07:57:08.345Z,2.30
2023-02-18T07:59:35.731Z,1.90
2023-02-18T08:02:03.188Z,2.00
2023-02-18T08:04:30.723Z,3.10
2023-02-18T08:06:58.153Z,1.60
2023-02-18T08:09:25.573Z,1.60
2023-02-18T08:11:53.035Z,1.75
2023-02-18T08:14:21.804Z,1.80
2023-02-18T08:16:49.249Z,1.90
2023-02-18T08:19:16.754Z,1.73
2023-02-18T08:21:44.155Z,1.67
2023-02-18T08:24:11.541Z,1.77
2023-02-18T08:26:44.071Z,1.33
2023-02-18T08:29:16.051Z,1.30
2023-02-18T08:31:45.045Z,1.60
2023-02-18T08:34:12.520Z,1.52
2023-02-18T08:36:39.869Z,1.30
2023-02-18T08:39:07.260Z,1.40
2023-02-18T08:41:34.628Z,1.10
2023-02-18T08:44:02.028Z,1.40
2023-02-18T08:46:34.834Z,1.38
2023-02-18T08:49:04.407Z,1.30
2023-02-18T08:51:31.820Z,1.40
2023-02-18T08:53:59.347Z,1.27
2023-02-18T08:56:26.721Z,1.23
2023-02-18T08:58:54.132Z,1.20
2023-02-18T09:01:21.919Z,1.00
2023-02-18T09:03:49.502Z,1.27
2023-02-18T09:06:18.224Z,1.10
2023-02-18T09:08:45.656Z,0.93
2023-02-18T09:11:13.200Z,1.30
2023-02-18T09:13:40.602Z,0.93
2023-02-18T09:16:09.138Z,1.00
2023-02-18T09:18:36.876Z,1.23
2023-02-18T09:21:05.454Z,1.20
2023-02-18T09:23:34.434Z,1.52
2023-02-18T09:26:04.246Z,1.40
2023-02-18T09:28:31.672Z,0.80
2023-02-18T09:31:00.288Z,1.23
2023-02-18T09:33:27.794Z,1.00
2023-02-18T09:35:55.177Z,1.02
2023-02-18T09:38:22.581Z,0.95
2023-02-18T09:40:52.574Z,1.40
2023-02-18T09:43:25.816Z,1.08
2023-02-18T09:45:53.240Z,1.45
2023-02-18T09:48:21.421Z,1.05
2023-02-18T09:50:49.136Z,1.08
2023-02-18T09:53:16.522Z,1.40
2023-02-18T09:55:44.644Z,1.17
2023-02-18T09:58:15.301Z,1.50
2023-02-18T10:00:43.466Z,1.80
2023-02-18T10:03:13.535Z,1.30
2023-02-18T10:05:42.039Z,1.75
2023-02-18T10:08:16.744Z,1.38
2023-02-18T10:10:45.248Z,1.20
2023-02-18T10:13:15.927Z,1.23
2023-02-18T10:15:43.774Z,1.50
2023-02-18T10:18:22.150Z,1.13
2023-02-18T10:20:49.548Z,1.60
2023-02-18T10:23:16.938Z,1.50
2023-02-18T10:25:45.235Z,1.58
2023-02-18T10:28:12.720Z,1.65
2023-02-18T10:30:42.929Z,1.70
2023-02-18T10:35:45.637Z,2.35
2023-02-18T10:38:14.572Z,1.63
2023-02-18T10:40:48.004Z,1.50
2023-02-18T10:43:19.119Z,1.60
2023-02-18T10:45:49.777Z,1.70
2023-02-18T10:48:25.497Z,1.60
2023-02-18T10:50:52.877Z,1.70
2023-02-18T10:53:23.307Z,1.80
2023-02-18T10:55:50.941Z,1.80
2023-02-18T10:58:32.829Z,1.40
2023-02-18T11:01:04.834Z,1.77
2023-02-18T11:03:43.167Z,1.80
2023-02-18T11:06:17.406Z,1.70
2023-02-18T11:08:45.191Z,1.60
2023-02-18T11:11:16.694Z,1.75
2023-02-18T11:13:44.102Z,2.17
2023-02-18T11:16:12.819Z,1.80
2023-02-18T11:18:41.040Z,1.73
2023-02-18T11:21:21.628Z,1.80
2023-02-18T11:23:50.335Z,1.98
2023-02-18T11:26:18.384Z,1.98
2023-02-18T11:28:46.708Z,1.70
2023-02-18T11:31:22.653Z,1.70
2023-02-18T11:33:51.585Z,1.77
2023-02-18T11:36:22.464Z,1.90
2023-02-18T11:38:51.042Z,1.90
2023-02-18T11:41:19.711Z,2.00
2023-02-18T11:43:48.592Z,2.20
2023-02-18T11:46:17.440Z,1.80
2023-02-18T11:48:46.181Z,2.20
2023-02-18T11:51:17.997Z,1.73
2023-02-18T11:53:59.437Z,1.92
2023-02-18T11:56:28.080Z,2.20
2023-02-18T11:58:55.510Z,1.90
2023-02-18T12:01:31.026Z,2.20
2023-02-18T12:04:01.806Z,2.28
2023-02-18T12:06:30.954Z,1.98
2023-02-18T12:08:59.516Z,2.20
2023-02-18T12:11:28.783Z,2.28
2023-02-18T12:13:56.974Z,2.00
2023-02-18T12:16:30.713Z,2.17
2023-02-18T12:19:05.624Z,2.30
2023-02-18T12:21:44.997Z,2.78
2023-02-18T12:24:19.947Z,2.28
2023-02-18T12:26:50.569Z,2.63
2023-02-18T12:29:26.487Z,2.30
2023-02-18T12:32:02.874Z,2.20
2023-02-18T12:34:44.620Z,2.58
2023-02-18T12:37:40.667Z,2.22
2023-02-18T12:40:21.836Z,2.03
2023-02-18T12:42:54.880Z,2.40
2023-02-18T12:45:48.983Z,2.33
2023-02-18T12:48:25.071Z,2.72
2023-02-18T12:51:09.043Z,2.08
2023-02-18T12:53:59.359Z,2.60
2023-02-18T12:59:02.317Z,2.92
2023-02-18T13:01:35.081Z,2.38
2023-02-18T13:04:37.052Z,2.35
2023-02-18T13:07:36.466Z,2.40
2023-02-18T13:10:30.621Z,1.92
2023-02-18T13:12:59.779Z,2.30
2023-02-18T13:15:31.962Z,2.88
2023-02-18T13:18:00.926Z,2.25
2023-02-18T13:20:31.316Z,2.30
2023-02-18T13:23:00.037Z,2.40
2023-02-18T13:25:27.447Z,2.45
2023-02-18T13:27:56.934Z,2.10
2023-02-18T13:30:26.863Z,2.47
2023-02-18T13:33:02.482Z,2.10
2023-02-18T13:35:32.414Z,1.95
2023-02-18T13:38:12.619Z,2.45
2023-02-18T13:40:40.027Z,1.90
2023-02-18T13:43:21.983Z,2.25
2023-02-18T13:46:09.430Z,3.65
2023-02-18T13:48:40.258Z,2.08
2023-02-18T13:51:07.928Z,2.25
2023-02-18T13:53:38.035Z,2.03
2023-02-18T13:56:06.308Z,2.17
2023-02-18T13:58:37.813Z,1.90
2023-02-18T14:01:06.595Z,2.10
2023-02-18T14:03:54.334Z,1.90
2023-02-18T14:06:22.727Z,2.10
2023-02-18T14:08:51.591Z,1.80
2023-02-18T14:11:49.526Z,2.25
2023-02-18T14:14:37.633Z,2.00
2023-02-18T14:17:15.664Z,2.58
2023-02-18T14:19:43.069Z,2.00
2023-02-18T14:22:28.034Z,2.00
2023-02-18T14:25:01.598Z,2.10
2023-02-18T14:27:28.963Z,2.10
2023-02-18T14:29:56.376Z,2.20
2023-02-18T14:32:23.840Z,1.95
2023-02-18T14:35:09.594Z,2.65
2023-02-18T14:37:55.200Z,2.20
2023-02-18T14:40:30.872Z,2.15
2023-02-18T14:43:03.263Z,1.98
2023-02-18T14:45:36.418Z,2.50
2023-02-18T14:48:14.316Z,1.90
2023-02-18T14:50:43.192Z,2.17
2023-02-18T14:53:18.290Z,2.10
2023-02-18T14:55:48.074Z,2.17
2023-02-18T14:58:23.369Z,2.22
2023-02-18T15:00:50.789Z,2.20
2023-02-18T15:03:19.135Z,2.63
2023-02-18T15:05:47.400Z,2.03
2023-02-18T15:08:16.220Z,3.20
2023-02-18T15:10:44.609Z,2.80
2023-02-18T15:13:17.414Z,2.58
2023-02-18T15:15:44.866Z,1.85
2023-02-18T15:18:17.834Z,2.28
2023-02-18T15:20:45.414Z,3.22
2023-02-18T15:23:13.868Z,3.22
2023-02-18T15:25:51.065Z,2.13
2023-02-18T15:28:24.304Z,3.42
2023-02-18T15:30:52.126Z,3.15
2023-02-18T15:33:20.513Z,2.50
2023-02-18T15:35:47.916Z,3.42
2023-02-18T15:38:15.831Z,5.13
2023-02-18T15:40:43.222Z,3.83
2023-02-18T15:43:13.731Z,2.40
2023-02-18T15:45:43.022Z,3.10
2023-02-18T15:48:16.113Z,3.00
2023-02-18T15:50:48.976Z,3.25
2023-02-18T15:53:17.198Z,2.72
2023-02-18T15:55:46.840Z,2.72
2023-02-18T15:58:15.357Z,3.30
2023-02-18T16:00:49.104Z,3.95
2023-02-18T16:03:17.453Z,3.88
2023-02-18T16:05:44.852Z,4.82
2023-02-18T16:08:15.212Z,3.78
2023-02-18T16:10:47.903Z,2.33
2023-02-18T16:13:16.235Z,3.05
2023-02-18T16:15:45.952Z,3.15
2023-02-18T16:18:24.795Z,3.15
2023-02-18T16:20:56.800Z,3.22
2023-02-18T16:23:27.844Z,4.45
2023-02-18T16:25:55.235Z,3.90
2023-02-18T16:28:24.282Z,2.53
2023-02-18T16:30:53.000Z,3.35
2023-02-18T16:33:20.385Z,3.50
2023-02-18T16:35:50.333Z,2.95
2023-02-18T16:38:19.696Z,3.15
2023-02-18T16:40:47.073Z,3.13
2023-02-18T16:43:16.287Z,3.13
2023-02-18T16:45:44.341Z,2.93
2023-02-18T16:48:16.382Z,2.67
2023-02-18T16:50:43.751Z,3.10
2023-02-18T16:53:11.575Z,3.25
2023-02-18T16:55:38.973Z,2.60
2023-02-18T16:58:06.352Z,3.72
2023-02-18T17:00:33.745Z,3.83
2023-02-18T17:03:01.323Z,5.07
2023-02-18T17:05:36.453Z,2.80
2023-02-18T17:08:13.892Z,3.70
2023-02-18T17:10:41.284Z,3.75
2023-02-18T17:13:11.314Z,4.63
2023-02-18T17:15:38.678Z,4.72
2023-02-18T17:18:06.088Z,3.80
2023-02-18T17:20:34.792Z,4.60
2023-02-18T17:23:02.194Z,3.28
2023-02-18T17:25:31.120Z,3.92
2023-02-18T17:27:58.534Z,3.38
2023-02-18T17:30:25.985Z,2.72
2023-02-18T17:32:53.398Z,5.72
2023-02-18T17:35:22.657Z,3.67
2023-02-18T17:37:51.379Z,2.80
2023-02-18T17:40:20.118Z,2.92
2023-02-18T17:42:47.580Z,3.42
2023-02-18T17:45:18.966Z,4.97
2023-02-18T17:47:46.363Z,4.82
2023-02-18T17:50:13.728Z,4.13
2023-02-18T17:52:41.149Z,2.85
2023-02-18T17:55:16.372Z,3.75
2023-02-18T17:57:44.833Z,3.45
2023-02-18T18:00:13.432Z,2.78
2023-02-18T18:02:40.873Z,3.65
2023-02-18T18:05:14.472Z,3.35
2023-02-18T18:07:41.872Z,4.28
2023-02-18T18:10:09.708Z,4.15
2023-02-18T18:12:38.466Z,3.38
2023-02-18T18:15:15.193Z,3.95
2023-02-18T18:17:42.586Z,5.40
2023-02-18T18:20:10.849Z,3.67
2023-02-18T18:22:38.255Z,5.07
2023-02-18T18:25:13.502Z,4.15
2023-02-18T18:27:42.230Z,4.45
2023-02-18T18:30:10.639Z,4.70
2023-02-18T18:32:38.065Z,3.92
2023-02-18T18:35:06.973Z,4.22
2023-02-18T18:37:34.363Z,3.22
2023-02-18T18:40:01.735Z,5.68
2023-02-18T18:42:29.121Z,2.58
2023-02-18T18:44:57.897Z,3.75
2023-02-18T18:47:25.282Z,3.08
2023-02-18T18:49:52.659Z,3.28
2023-02-18T18:52:20.184Z,5.50
2023-02-18T18:54:47.590Z,6.20
2023-02-18T18:57:15.176Z,5.30
2023-02-18T18:59:42.588Z,3.63
2023-02-18T19:02:12.829Z,4.68
2023-02-18T19:04:40.221Z,4.75
2023-02-18T19:07:07.630Z,3.65
2023-02-18T19:09:35.028Z,3.28
2023-02-18T19:12:02.427Z,3.30
2023-02-18T19:14:29.828Z,3.90
2023-02-18T19:16:57.257Z,4.43
2023-02-18T19:19:25.956Z,4.28
2023-02-18T19:21:53.830Z,4.10
2023-02-18T19:24:21.215Z,4.28
2023-02-18T19:26:48.579Z,3.30
2023-02-18T19:29:15.964Z,4.32
2023-02-18T19:31:44.766Z,5.18
2023-02-18T19:34:12.343Z,5.28
2023-02-18T19:36:41.324Z,4.03
2023-02-18T19:39:08.700Z,3.25
2023-02-18T19:41:36.080Z,4.68
2023-02-18T19:44:03.487Z,4.20
2023-02-18T19:46:32.178Z,2.95
2023-02-18T19:48:59.690Z,4.38
2023-02-18T19:51:27.126Z,5.13
2023-02-18T19:53:55.837Z,3.75
2023-02-18T19:56:24.257Z,4.45
2023-02-18T19:58:51.639Z,4.13
2023-02-18T20:01:19.211Z,4.47
2023-02-18T20:03:47.128Z,4.60
2023-02-18T20:06:17.779Z,3.20
2023-02-18T20:08:45.249Z,4.00
2023-02-18T20:11:14.165Z,4.60
2023-02-18T20:13:42.014Z,4.18
2023-02-18T20:16:10.398Z,2.65
2023-02-18T20:18:37.802Z,3.05
2023-02-18T20:21:05.779Z,3.28
2023-02-18T20:23:33.164Z,4.50
2023-02-18T20:26:03.934Z,4.88
2023-02-18T20:28:32.693Z,3.88
2023-02-18T20:31:05.257Z,3.22
2023-02-18T20:33:32.783Z,3.85
2023-02-18T20:36:00.189Z,3.20
2023-02-18T20:38:27.693Z,2.88
2023-02-18T20:40:55.064Z,2.53
2023-02-18T20:43:22.448Z,4.82
2023-02-18T20:45:51.148Z,3.90
2023-02-18T20:48:18.534Z,3.47
2023-02-18T20:50:45.906Z,5.22
2023-02-18T20:53:13.308Z,4.43
2023-02-18T20:55:46.763Z,5.30
2023-02-18T20:58:14.194Z,3.58
2023-02-18T21:00:41.600Z,3.45
2023-02-18T21:03:10.294Z,2.83
2023-02-18T21:05:37.681Z,4.38
2023-02-18T21:08:05.454Z,3.45
2023-02-18T21:10:32.843Z,3.70
2023-02-18T21:13:00.230Z,6.13
2023-02-18T21:15:27.911Z,4.38
2023-02-18T21:17:55.300Z,4.28
2023-02-18T21:20:23.989Z,3.30
2023-02-18T21:22:51.427Z,5.25
2023-02-18T21:25:18.778Z,6.00
2023-02-18T21:27:46.162Z,3.85
2023-02-18T21:30:13.929Z,6.40
2023-02-18T21:32:41.331Z,3.50
2023-02-18T21:35:08.953Z,4.72
2023-02-18T21:37:37.653Z,4.35
2023-02-18T21:40:05.332Z,4.13
2023-02-18T21:42:33.878Z,3.13
2023-02-18T21:45:02.813Z,4.22
2023-02-18T21:47:30.188Z,4.18
2023-02-18T21:49:57.599Z,5.30
2023-02-18T21:52:27.129Z,4.65
2023-02-18T21:54:55.824Z,3.97
2023-02-18T21:57:23.198Z,4.63
2023-02-18T21:59:50.589Z,3.85
2023-02-18T22:02:18.914Z,3.58
2023-02-18T22:04:46.515Z,4.32
2023-02-18T22:07:14.053Z,7.57
2023-02-18T22:09:41.483Z,3.72
2023-02-18T22:12:11.602Z,4.03
2023-02-18T22:17:06.243Z,4.35
2023-02-18T22:19:33.613Z,4.03
2023-02-18T22:22:02.432Z,3.10
2023-02-18T22:24:29.992Z,5.43
2023-02-18T22:26:57.558Z,4.40
2023-02-18T22:29:26.253Z,4.75
2023-02-18T22:31:54.032Z,4.78
2023-02-18T22:34:21.669Z,5.50
2023-02-18T22:36:49.146Z,4.07
2023-02-18T22:39:16.621Z,5.32
2023-02-18T22:41:44.029Z,3.55
2023-02-18T22:44:12.828Z,5.07
2023-02-18T22:46:41.644Z,5.28
2023-02-18T22:49:09.061Z,4.28
2023-02-18T22:51:38.243Z,4.07
2023-02-18T22:54:05.935Z,4.63
2023-02-18T22:56:33.350Z,4.60
2023-02-18T22:59:00.750Z,4.53
2023-02-18T23:01:29.408Z,4.68
2023-02-18T23:03:59.130Z,4.30
2023-02-18T23:06:26.523Z,4.57
2023-02-18T23:08:54.651Z,3.78
2023-02-18T23:11:22.262Z,4.25
2023-02-18T23:14:10.157Z,3.92
2023-02-18T23:16:57.724Z,5.03
2023-02-18T23:19:26.933Z,4.22
2023-02-18T23:21:54.387Z,4.30
2023-02-18T23:24:21.792Z,4.75
2023-02-18T23:26:49.297Z,4.93
2023-02-18T23:29:16.766Z,5.03
2023-02-18T23:31:44.290Z,5.28
2023-02-18T23:34:13.183Z,4.20
2023-02-18T23:36:42.785Z,4.43
2023-02-18T23:39:11.128Z,3.72
2023-02-18T23:41:38.587Z,4.40
2023-02-18T23:44:06.494Z,4.00
2023-02-18T23:46:34.123Z,5.65
2023-02-18T23:49:01.766Z,5.90
2023-02-18T23:51:29.640Z,6.45
2023-02-18T23:53:58.341Z,4.20
2023-02-18T23:56:26.782Z,4.28
2023-02-18T23:58:57.061Z,4.05
